Time;durP1;ratioP1;P1;durP2;ratioP2;P2;SDS_P1;SDS_P2;PMS_P1;PMS_P2;Temp;Humidity;BMP_temperature;BMP_pressure;BME280_temperature;BME280_humidity;BME280_pressure;Samples;Min_cycle;Max_cycle;Signal;HPM_P1;HPM_P2
2023/04/23 00:00:31;;;;;;;9.35;6.20;;;;;;;;;;4998133;28;20137;-84
2023/04/23 00:02:59;;;;;;;10.07;6.15;;;;;;;;;;4996503;28;20035;-83
2023/04/23 00:05:27;;;;;;;9.18;5.72;;;;;;;;;;4997008;28;20030;-83
2023/04/23 00:07:53;;;;;;;7.55;5.60;;;;;;;;;;5011271;28;20023;-84
2023/04/23 00:10:19;;;;;;;9.30;5.00;;;;;;;;;;5010725;28;20058;-82
2023/04/23 00:12:45;;;;;;;7.15;5.20;;;;;;;;;;4996774;28;20032;-84
2023/04/23 00:15:14;;;;;;;11.35;5.97;;;;;;;;;;4995146;28;20408;-85
2023/04/23 00:17:39;;;;;;;7.32;5.38;;;;;;;;;;4994029;28;20146;-83
2023/04/23 00:20:06;;;;;;;7.50;5.35;;;;;;;;;;4996115;28;20093;-80
2023/04/23 00:22:32;;;;;;;7.63;5.80;;;;;;;;;;4994572;28;20061;-84
2023/04/23 00:24:58;;;;;;;10.60;6.05;;;;;;;;;;5003618;28;20057;-82
2023/04/23 00:27:24;;;;;;;8.82;6.50;;;;;;;;;;4998153;28;20508;-83
2023/04/23 00:29:50;;;;;;;9.25;6.30;;;;;;;;;;4997786;28;20038;-84
2023/04/23 00:32:17;;;;;;;10.75;6.88;;;;;;;;;;5012007;28;20026;-83
2023/04/23 00:34:43;;;;;;;9.32;6.00;;;;;;;;;;5011346;28;20045;-83
2023/04/23 00:37:08;;;;;;;8.32;5.53;;;;;;;;;;4995950;28;20026;-84
2023/04/23 00:39:36;;;;;;;8.95;6.43;;;;;;;;;;5012150;28;20041;-83
2023/04/23 00:42:09;;;;;;;11.23;6.35;;;;;;;;;;5010472;28;20061;-84
2023/04/23 00:44:36;;;;;;;9.13;6.32;;;;;;;;;;5011623;28;20034;-83
2023/04/23 00:47:28;;;;;;;9.20;5.70;;;;;;;;;;5010638;28;20018;-83
2023/04/23 00:50:13;;;;;;;11.68;6.18;;;;;;;;;;5009625;28;20041;-84
2023/04/23 00:52:55;;;;;;;10.45;5.70;;;;;;;;;;4994973;28;20117;-84
2023/04/23 00:55:31;;;;;;;9.82;6.13;;;;;;;;;;4976223;28;20074;-84
2023/04/23 00:58:22;;;;;;;8.35;5.75;;;;;;;;;;4995987;28;20041;-84
2023/04/23 01:00:52;;;;;;;7.03;5.45;;;;;;;;;;4977837;28;20042;-84
2023/04/23 01:03:30;;;;;;;8.88;5.75;;;;;;;;;;4995028;28;20034;-84
2023/04/23 01:06:05;;;;;;;7.37;6.00;;;;;;;;;;4994740;28;20034;-85
2023/04/23 01:11:44;;;;;;;7.95;5.15;;;;;;;;;;4984864;28;20038;-85
2023/04/23 01:14:20;;;;;;;10.38;5.40;;;;;;;;;;5008557;28;20066;-84
2023/04/23 01:17:02;;;;;;;6.72;4.80;;;;;;;;;;4994102;28;20051;-84
2023/04/23 01:19:36;;;;;;;8.38;5.00;;;;;;;;;;4997302;28;20073;-84
2023/04/23 01:22:09;;;;;;;7.15;4.75;;;;;;;;;;4995479;28;20042;-82
2023/04/23 01:24:42;;;;;;;6.10;4.28;;;;;;;;;;5009295;28;20045;-85
2023/04/23 01:27:28;;;;;;;6.95;5.07;;;;;;;;;;4993136;28;20038;-84
2023/04/23 01:30:00;;;;;;;7.43;4.68;;;;;;;;;;4992618;28;20035;-87
2023/04/23 01:32:30;;;;;;;6.38;4.40;;;;;;;;;;5008413;28;20093;-84
2023/04/23 01:34:57;;;;;;;5.88;4.50;;;;;;;;;;5009212;28;20396;-84
2023/04/23 01:37:37;;;;;;;7.55;4.57;;;;;;;;;;4992858;28;20045;-82
2023/04/23 01:40:07;;;;;;;7.78;4.72;;;;;;;;;;4995879;28;20046;-83
2023/04/23 01:42:33;;;;;;;6.38;4.90;;;;;;;;;;4994025;28;20059;-84
2023/04/23 01:45:01;;;;;;;5.43;3.80;;;;;;;;;;4994382;28;20030;-84
2023/04/23 01:47:28;;;;;;;5.72;4.05;;;;;;;;;;5009921;28;20057;-83
2023/04/23 01:49:54;;;;;;;6.75;4.53;;;;;;;;;;4993051;28;20034;-82
2023/04/23 01:52:20;;;;;;;6.25;4.47;;;;;;;;;;4977245;28;20455;-81
2023/04/23 01:54:47;;;;;;;6.65;4.40;;;;;;;;;;4976869;28;20026;-82
2023/04/23 01:57:13;;;;;;;7.50;4.22;;;;;;;;;;4995522;28;20097;-84
2023/04/23 01:59:39;;;;;;;6.00;3.95;;;;;;;;;;4994746;28;20033;-82
2023/04/23 02:02:09;;;;;;;7.80;4.50;;;;;;;;;;4990097;28;20042;-81
2023/04/23 02:04:37;;;;;;;5.28;4.18;;;;;;;;;;4988790;28;20054;-84
2023/04/23 02:07:03;;;;;;;6.82;4.18;;;;;;;;;;4994038;28;20022;-79
2023/04/23 02:09:29;;;;;;;8.73;4.55;;;;;;;;;;4974496;28;20045;-76
2023/04/23 02:11:56;;;;;;;8.15;4.88;;;;;;;;;;4990339;28;20041;-79
2023/04/23 02:14:22;;;;;;;4.60;3.97;;;;;;;;;;4991599;28;20038;-78
2023/04/23 02:16:48;;;;;;;5.93;4.03;;;;;;;;;;4974142;28;20022;-77
2023/04/23 02:19:15;;;;;;;7.05;4.65;;;;;;;;;;5006385;28;20026;-77
2023/04/23 02:21:41;;;;;;;5.75;4.35;;;;;;;;;;5006812;28;20033;-78
2023/04/23 02:24:07;;;;;;;4.95;3.97;;;;;;;;;;4991630;28;20031;-77
2023/04/23 02:26:32;;;;;;;5.85;4.45;;;;;;;;;;4990225;28;20321;-77
2023/04/23 02:28:58;;;;;;;7.97;5.13;;;;;;;;;;5006290;28;20081;-78
2023/04/23 02:31:26;;;;;;;9.38;4.85;;;;;;;;;;5006495;28;20463;-78
2023/04/23 02:33:53;;;;;;;8.77;5.10;;;;;;;;;;5006650;28;20061;-78
2023/04/23 02:36:19;;;;;;;6.70;4.63;;;;;;;;;;4974012;28;20023;-76
2023/04/23 02:38:48;;;;;;;9.00;5.40;;;;;;;;;;4989909;28;20304;-79
2023/04/23 02:41:13;;;;;;;8.77;5.85;;;;;;;;;;4958215;28;20034;-78
2023/04/23 02:43:39;;;;;;;9.50;5.72;;;;;;;;;;4991580;28;20101;-78
2023/04/23 02:46:08;;;;;;;10.02;5.80;;;;;;;;;;4991434;28;20053;-78
2023/04/23 02:48:40;;;;;;;8.75;6.32;;;;;;;;;;4990628;28;20080;-78
2023/04/23 02:51:08;;;;;;;10.55;6.60;;;;;;;;;;5006343;28;20035;-78
2023/04/23 02:53:34;;;;;;;10.38;6.10;;;;;;;;;;5006264;28;20038;-77
2023/04/23 02:56:02;;;;;;;11.35;5.75;;;;;;;;;;4990138;28;20372;-78
2023/04/23 02:58:30;;;;;;;11.60;5.22;;;;;;;;;;5005819;28;20038;-77
2023/04/23 03:00:59;;;;;;;8.02;5.32;;;;;;;;;;5006968;28;20049;-78
2023/04/23 03:03:26;;;;;;;10.25;5.55;;;;;;;;;;5006211;28;20489;-76
2023/04/23 03:05:52;;;;;;;7.47;5.55;;;;;;;;;;5008167;28;20057;-80
2023/04/23 03:08:18;;;;;;;11.10;5.65;;;;;;;;;;4991042;28;20033;-81
2023/04/23 03:10:44;;;;;;;10.00;6.07;;;;;;;;;;5007035;28;20042;-82
2023/04/23 03:13:10;;;;;;;8.13;5.70;;;;;;;;;;4976521;28;20030;-82
2023/04/23 03:15:36;;;;;;;9.45;5.07;;;;;;;;;;5011258;28;20121;-81
2023/04/23 03:18:03;;;;;;;7.97;5.20;;;;;;;;;;5010989;28;20117;-81
2023/04/23 03:20:29;;;;;;;6.55;4.93;;;;;;;;;;5010642;28;20376;-82
2023/04/23 03:22:55;;;;;;;7.47;4.38;;;;;;;;;;4994773;28;20030;-83
2023/04/23 03:25:24;;;;;;;6.22;3.90;;;;;;;;;;4996020;28;20038;-82
2023/04/23 03:27:51;;;;;;;10.13;4.93;;;;;;;;;;4994586;28;20027;-81
2023/04/23 03:30:19;;;;;;;5.70;4.03;;;;;;;;;;5010849;28;20065;-82
2023/04/23 03:32:45;;;;;;;6.97;4.55;;;;;;;;;;4989821;28;20037;-82
2023/04/23 03:35:14;;;;;;;13.38;4.20;;;;;;;;;;4990162;28;20029;-83
2023/04/23 03:37:44;;;;;;;8.00;4.70;;;;;;;;;;5029556;28;20379;-82
2023/04/23 03:40:11;;;;;;;9.88;4.53;;;;;;;;;;5030125;28;20125;-81
2023/04/23 03:42:39;;;;;;;14.13;5.25;;;;;;;;;;5013726;28;20025;-81
2023/04/23 03:45:07;;;;;;;9.57;5.40;;;;;;;;;;5029849;28;20555;-81
2023/04/23 03:47:33;;;;;;;9.45;5.47;;;;;;;;;;5014869;28;20515;-82
2023/04/23 03:49:59;;;;;;;12.25;5.20;;;;;;;;;;5005239;28;20037;-83
2023/04/23 03:52:25;;;;;;;10.65;5.03;;;;;;;;;;5007862;28;20445;-80
2023/04/23 03:54:52;;;;;;;8.50;5.60;;;;;;;;;;5008552;28;20041;-81
2023/04/23 03:57:24;;;;;;;8.35;6.00;;;;;;;;;;4978511;28;20034;-81
2023/04/23 04:00:17;;;;;;;12.43;6.05;;;;;;;;;;4991703;28;20032;-82
2023/04/23 04:02:46;;;;;;;7.60;5.32;;;;;;;;;;4995120;28;20038;-81
2023/04/23 04:05:12;;;;;;;11.48;6.05;;;;;;;;;;4992633;28;20049;-82
2023/04/23 04:07:40;;;;;;;11.57;5.43;;;;;;;;;;4993453;28;20042;-81
2023/04/23 04:10:06;;;;;;;9.82;5.82;;;;;;;;;;4992666;28;20069;-82
2023/04/23 04:12:32;;;;;;;10.35;5.03;;;;;;;;;;5009850;28;20404;-81
2023/04/23 04:14:58;;;;;;;7.63;4.28;;;;;;;;;;4993114;28;20037;-83
2023/04/23 04:17:25;;;;;;;7.13;4.55;;;;;;;;;;4993161;28;20053;-81
2023/04/23 04:19:51;;;;;;;10.23;4.72;;;;;;;;;;4995945;28;20042;-82
2023/04/23 04:22:16;;;;;;;9.40;4.25;;;;;;;;;;4994672;28;20034;-81
2023/04/23 04:24:46;;;;;;;6.95;4.60;;;;;;;;;;4994407;28;20033;-82
2023/04/23 04:27:12;;;;;;;6.82;4.78;;;;;;;;;;4986647;28;20089;-81
2023/04/23 04:29:39;;;;;;;12.45;5.30;;;;;;;;;;4992914;28;20027;-82
2023/04/23 04:32:08;;;;;;;9.10;5.60;;;;;;;;;;5009282;28;20046;-82
2023/04/23 04:34:37;;;;;;;7.70;5.07;;;;;;;;;;4995769;28;20027;-82
2023/04/23 04:37:03;;;;;;;9.98;5.35;;;;;;;;;;4994103;28;20065;-82
2023/04/23 04:39:30;;;;;;;12.50;5.15;;;;;;;;;;4994151;28;20022;-82
2023/04/23 04:41:56;;;;;;;11.32;5.55;;;;;;;;;;4992897;28;20506;-81
2023/04/23 04:44:22;;;;;;;6.97;4.43;;;;;;;;;;4992590;28;20018;-80
2023/04/23 04:46:48;;;;;;;7.57;4.70;;;;;;;;;;4993820;28;20046;-81
2023/04/23 04:49:14;;;;;;;6.05;4.65;;;;;;;;;;4993868;28;20084;-81
2023/04/23 04:51:40;;;;;;;6.20;4.90;;;;;;;;;;4992615;28;20041;-81
2023/04/23 04:54:07;;;;;;;6.72;5.20;;;;;;;;;;4993832;28;20042;-82
2023/04/23 04:56:33;;;;;;;7.28;5.35;;;;;;;;;;4976433;28;20157;-81
2023/04/23 04:58:59;;;;;;;6.05;5.05;;;;;;;;;;4993780;28;20113;-81
2023/04/23 05:01:27;;;;;;;6.18;5.00;;;;;;;;;;4992046;28;20038;-82
2023/04/23 05:03:55;;;;;;;7.22;5.57;;;;;;;;;;4993385;28;20055;-82
2023/04/23 05:06:21;;;;;;;6.13;5.18;;;;;;;;;;4992695;28;20034;-82
2023/04/23 05:08:49;;;;;;;6.68;5.25;;;;;;;;;;4993789;28;20400;-81
2023/04/23 05:11:18;;;;;;;8.00;5.38;;;;;;;;;;4992377;28;20515;-80
2023/04/23 05:13:44;;;;;;;7.43;5.03;;;;;;;;;;4992264;28;20029;-82
2023/04/23 05:16:13;;;;;;;9.63;5.28;;;;;;;;;;4993693;28;20057;-81
2023/04/23 05:18:42;;;;;;;6.97;5.45;;;;;;;;;;4996347;28;20044;-81
2023/04/23 05:21:08;;;;;;;17.35;5.28;;;;;;;;;;4992081;28;20046;-81
2023/04/23 05:23:35;;;;;;;8.32;5.28;;;;;;;;;;5008327;28;20030;-80
2023/04/23 05:26:02;;;;;;;10.80;5.60;;;;;;;;;;4992999;28;20704;-79
2023/04/23 05:28:31;;;;;;;8.63;5.50;;;;;;;;;;4993095;28;20022;-80
2023/04/23 05:30:57;;;;;;;8.23;5.22;;;;;;;;;;4991868;28;20065;-80
2023/04/23 05:33:24;;;;;;;7.03;5.47;;;;;;;;;;5008041;28;20030;-80
2023/04/23 05:35:50;;;;;;;6.40;5.68;;;;;;;;;;4992640;28;20526;-80
2023/04/23 05:38:16;;;;;;;6.85;5.63;;;;;;;;;;4992673;28;20488;-81
2023/04/23 05:40:42;;;;;;;8.40;5.47;;;;;;;;;;5008194;28;20061;-81
2023/04/23 05:43:08;;;;;;;10.43;6.20;;;;;;;;;;4992956;28;20030;-80
2023/04/23 05:45:35;;;;;;;9.10;5.95;;;;;;;;;;4992870;28;20045;-81
2023/04/23 05:48:02;;;;;;;8.02;6.50;;;;;;;;;;4992942;28;20049;-81
2023/04/23 05:50:28;;;;;;;9.65;6.57;;;;;;;;;;4994373;28;20046;-80
2023/04/23 05:52:54;;;;;;;8.60;6.32;;;;;;;;;;4994212;28;20049;-81
2023/04/23 05:55:20;;;;;;;8.00;6.57;;;;;;;;;;4994342;28;20022;-81
2023/04/23 05:57:46;;;;;;;12.88;7.47;;;;;;;;;;4994213;28;20030;-82
2023/04/23 06:00:12;;;;;;;9.07;7.18;;;;;;;;;;4993195;28;20093;-79
2023/04/23 06:02:40;;;;;;;8.80;7.00;;;;;;;;;;4975269;28;20133;-80
2023/04/23 06:05:06;;;;;;;9.23;7.57;;;;;;;;;;4991670;28;20038;-79
2023/04/23 06:07:35;;;;;;;10.73;7.32;;;;;;;;;;4992497;28;20030;-80
2023/04/23 06:10:01;;;;;;;9.10;7.10;;;;;;;;;;4991494;28;20034;-80
2023/04/23 06:12:27;;;;;;;10.80;7.65;;;;;;;;;;4991589;28;20044;-81
2023/04/23 06:14:56;;;;;;;11.02;8.43;;;;;;;;;;4992854;28;20030;-79
2023/04/23 06:17:22;;;;;;;10.35;7.80;;;;;;;;;;4992627;28;20023;-79
2023/04/23 06:19:48;;;;;;;11.27;7.80;;;;;;;;;;4992318;28;20037;-80
2023/04/23 06:22:14;;;;;;;8.68;7.28;;;;;;;;;;4992523;28;20519;-79
2023/04/23 06:24:40;;;;;;;9.55;7.85;;;;;;;;;;4992525;28;20031;-79
2023/04/23 06:27:05;;;;;;;9.93;7.38;;;;;;;;;;4991269;28;20050;-81
2023/04/23 06:29:35;;;;;;;8.65;7.18;;;;;;;;;;4991139;28;20022;-81
2023/04/23 06:32:03;;;;;;;8.25;6.70;;;;;;;;;;4991150;28;20038;-80
2023/04/23 06:34:30;;;;;;;12.45;6.90;;;;;;;;;;4991136;28;20088;-82
2023/04/23 06:36:55;;;;;;;10.25;7.50;;;;;;;;;;4991241;28;20046;-80
2023/04/23 06:39:22;;;;;;;10.65;7.63;;;;;;;;;;4992525;28;20488;-80
2023/04/23 06:41:48;;;;;;;9.02;7.45;;;;;;;;;;4992491;28;20026;-81
2023/04/23 06:44:22;;;;;;;9.02;7.00;;;;;;;;;;4992549;28;20365;-80
2023/04/23 06:46:50;;;;;;;8.70;7.30;;;;;;;;;;4992529;28;20031;-82
2023/04/23 06:49:17;;;;;;;9.55;7.38;;;;;;;;;;4995685;28;20384;-80
2023/04/23 06:51:45;;;;;;;9.10;7.22;;;;;;;;;;4996344;28;20026;-81
2023/04/23 06:54:12;;;;;;;8.85;6.60;;;;;;;;;;4996147;28;20125;-81
2023/04/23 06:56:39;;;;;;;9.55;7.18;;;;;;;;;;4961662;28;20042;-81
2023/04/23 06:59:05;;;;;;;8.40;6.90;;;;;;;;;;4995987;28;20038;-81
2023/04/23 07:01:35;;;;;;;10.40;7.07;;;;;;;;;;4994710;28;20026;-80
2023/04/23 07:04:01;;;;;;;8.23;6.47;;;;;;;;;;4995799;28;20097;-82
2023/04/23 07:06:27;;;;;;;10.93;6.70;;;;;;;;;;4994530;28;20069;-81
2023/04/23 07:08:53;;;;;;;7.68;6.30;;;;;;;;;;4978429;28;20058;-81
2023/04/23 07:11:20;;;;;;;11.27;5.85;;;;;;;;;;4995656;28;20026;-81
2023/04/23 07:13:46;;;;;;;8.75;6.85;;;;;;;;;;4978403;28;20048;-81
2023/04/23 07:16:14;;;;;;;8.38;6.07;;;;;;;;;;4994413;28;20022;-80
2023/04/23 07:18:40;;;;;;;9.05;6.78;;;;;;;;;;4994896;28;20100;-79
2023/04/23 07:21:06;;;;;;;9.20;7.15;;;;;;;;;;4994243;28;20038;-80
2023/04/23 07:23:31;;;;;;;8.50;6.07;;;;;;;;;;4995382;28;20107;-82
2023/04/23 07:25:58;;;;;;;10.30;6.50;;;;;;;;;;4995323;28;20031;-80
2023/04/23 07:28:24;;;;;;;9.93;6.97;;;;;;;;;;4994509;28;20062;-82
2023/04/23 07:30:50;;;;;;;10.73;7.40;;;;;;;;;;4995389;28;20093;-79
2023/04/23 07:33:16;;;;;;;10.98;7.03;;;;;;;;;;4995106;28;20519;-80
2023/04/23 07:35:41;;;;;;;10.23;6.68;;;;;;;;;;4995411;28;20030;-80
2023/04/23 07:38:07;;;;;;;7.80;5.88;;;;;;;;;;4995362;28;20041;-81
2023/04/23 07:40:33;;;;;;;10.50;6.55;;;;;;;;;;4993310;28;20053;-81
2023/04/23 07:42:59;;;;;;;7.57;5.50;;;;;;;;;;4994563;28;20089;-81
2023/04/23 07:45:24;;;;;;;7.78;5.85;;;;;;;;;;4993589;28;20076;-80
2023/04/23 07:47:50;;;;;;;7.75;6.43;;;;;;;;;;4993501;28;20555;-81
2023/04/23 07:50:16;;;;;;;8.70;5.65;;;;;;;;;;4994772;28;20030;-81
2023/04/23 07:52:43;;;;;;;6.80;5.57;;;;;;;;;;4995118;28;20038;-82
2023/04/23 07:55:09;;;;;;;7.03;5.57;;;;;;;;;;4994750;28;20469;-81
2023/04/23 07:57:35;;;;;;;8.70;5.97;;;;;;;;;;4994887;28;20034;-82
2023/04/23 08:00:02;;;;;;;8.75;6.07;;;;;;;;;;4994298;28;20081;-81
2023/04/23 08:02:38;;;;;;;6.82;5.00;;;;;;;;;;4993625;28;20408;-81
2023/04/23 08:05:05;;;;;;;7.43;5.80;;;;;;;;;;4994585;28;20084;-80
2023/04/23 08:07:31;;;;;;;7.18;5.60;;;;;;;;;;4994575;28;20113;-81
2023/04/23 08:10:01;;;;;;;7.50;6.07;;;;;;;;;;4993075;28;20089;-81
2023/04/23 08:12:28;;;;;;;8.30;5.80;;;;;;;;;;4993170;28;20030;-81
2023/04/23 08:14:54;;;;;;;7.43;6.28;;;;;;;;;;4993285;28;20031;-81
2023/04/23 08:17:24;;;;;;;8.43;6.55;;;;;;;;;;4992794;28;20035;-82
2023/04/23 08:19:50;;;;;;;7.75;6.13;;;;;;;;;;4992727;28;20050;-82
2023/04/23 08:22:16;;;;;;;7.50;5.32;;;;;;;;;;4992729;28;20089;-80
2023/04/23 08:24:45;;;;;;;8.27;5.32;;;;;;;;;;5010061;28;20066;-80
2023/04/23 08:27:11;;;;;;;7.82;5.65;;;;;;;;;;4994878;28;20105;-78
2023/04/23 08:29:38;;;;;;;6.18;5.30;;;;;;;;;;4993974;28;20034;-80
2023/04/23 08:32:03;;;;;;;6.20;5.13;;;;;;;;;;4993789;28;20049;-80
2023/04/23 08:34:29;;;;;;;7.03;6.13;;;;;;;;;;4994302;28;20361;-82
2023/04/23 08:36:56;;;;;;;7.35;5.45;;;;;;;;;;4972379;28;20031;-80
2023/04/23 08:39:23;;;;;;;6.75;5.43;;;;;;;;;;4993963;28;20049;-81
2023/04/23 08:41:54;;;;;;;6.22;5.25;;;;;;;;;;5008431;28;20472;-80
2023/04/23 08:44:24;;;;;;;6.75;5.30;;;;;;;;;;4994637;28;20041;-81
2023/04/23 08:46:53;;;;;;;6.13;4.68;;;;;;;;;;4994765;28;20038;-81
2023/04/23 08:49:20;;;;;;;8.95;4.97;;;;;;;;;;4991938;28;20134;-81
2023/04/23 08:51:49;;;;;;;6.55;4.93;;;;;;;;;;4992188;28;20113;-80
2023/04/23 08:54:24;;;;;;;6.28;5.28;;;;;;;;;;5008356;28;20030;-80
2023/04/23 08:56:51;;;;;;;6.65;4.90;;;;;;;;;;4992179;28;20081;-80
2023/04/23 08:59:17;;;;;;;8.00;4.95;;;;;;;;;;5008530;28;20488;-81
2023/04/23 09:01:44;;;;;;;7.28;5.35;;;;;;;;;;4992425;28;20048;-82
2023/04/23 09:04:10;;;;;;;9.93;6.00;;;;;;;;;;4991285;28;20076;-82
2023/04/23 09:06:37;;;;;;;8.27;5.18;;;;;;;;;;4992117;28;20125;-82
2023/04/23 09:09:06;;;;;;;9.73;5.20;;;;;;;;;;4975920;28;20073;-80
2023/04/23 09:11:33;;;;;;;5.70;5.10;;;;;;;;;;4992711;28;20049;-81
2023/04/23 09:13:58;;;;;;;7.03;5.50;;;;;;;;;;4994231;28;20061;-81
2023/04/23 09:16:25;;;;;;;9.90;5.80;;;;;;;;;;4995113;28;20037;-79
2023/04/23 09:18:52;;;;;;;8.35;5.78;;;;;;;;;;4992933;28;20031;-81
2023/04/23 09:21:20;;;;;;;5.63;4.30;;;;;;;;;;4992817;28;20038;-81
2023/04/23 09:23:45;;;;;;;6.65;5.28;;;;;;;;;;4991973;28;20030;-81
2023/04/23 09:26:29;;;;;;;5.93;4.80;;;;;;;;;;4993719;28;20041;-80
2023/04/23 09:28:55;;;;;;;6.60;4.90;;;;;;;;;;4991641;28;20381;-81
2023/04/23 09:31:22;;;;;;;6.32;5.32;;;;;;;;;;4992024;28;20105;-80
2023/04/23 09:33:53;;;;;;;6.55;4.57;;;;;;;;;;4991379;28;20041;-80
2023/04/23 09:36:21;;;;;;;5.53;4.15;;;;;;;;;;4992030;28;20104;-81
2023/04/23 09:38:49;;;;;;;6.45;4.68;;;;;;;;;;4992650;28;20026;-80
2023/04/23 09:41:21;;;;;;;7.40;4.55;;;;;;;;;;4992741;28;20088;-81
2023/04/23 09:43:47;;;;;;;6.45;5.28;;;;;;;;;;4992947;28;20129;-81
2023/04/23 09:46:13;;;;;;;12.40;5.05;;;;;;;;;;4992516;28;20110;-80
2023/04/23 09:48:41;;;;;;;6.82;4.88;;;;;;;;;;4992616;28;20096;-80
2023/04/23 09:51:07;;;;;;;8.48;6.47;;;;;;;;;;4990912;28;20504;-80
2023/04/23 09:53:42;;;;;;;16.73;12.95;;;;;;;;;;4976174;28;20026;-80
2023/04/23 09:56:08;;;;;;;6.60;4.78;;;;;;;;;;4992703;28;20114;-81
2023/04/23 09:58:34;;;;;;;5.82;4.53;;;;;;;;;;4992725;28;20110;-81
2023/04/23 10:01:07;;;;;;;7.18;4.05;;;;;;;;;;4991449;28;20042;-80
2023/04/23 10:03:34;;;;;;;9.38;5.60;;;;;;;;;;4993423;28;20034;-81
2023/04/23 10:06:04;;;;;;;7.38;5.57;;;;;;;;;;4991368;28;20038;-83
2023/04/23 10:08:30;;;;;;;6.22;5.03;;;;;;;;;;4993820;28;20568;-81
2023/04/23 10:10:56;;;;;;;9.05;5.00;;;;;;;;;;4991676;28;20107;-81
2023/04/23 10:13:22;;;;;;;6.20;5.05;;;;;;;;;;4991172;28;20125;-81
2023/04/23 10:15:49;;;;;;;7.03;5.35;;;;;;;;;;4991351;28;20113;-80
2023/04/23 10:18:16;;;;;;;7.15;5.15;;;;;;;;;;4991185;28;20049;-81
2023/04/23 10:20:43;;;;;;;6.93;4.40;;;;;;;;;;4992446;28;20049;-81
2023/04/23 10:23:11;;;;;;;6.45;4.80;;;;;;;;;;4992521;28;20034;-81
2023/04/23 10:25:38;;;;;;;7.10;4.20;;;;;;;;;;4991547;28;20507;-81
2023/04/23 10:28:06;;;;;;;7.15;4.38;;;;;;;;;;4992742;28;20089;-81
2023/04/23 10:30:32;;;;;;;5.45;4.00;;;;;;;;;;4992257;28;20469;-80
2023/04/23 10:33:00;;;;;;;6.75;4.38;;;;;;;;;;4992600;28;20034;-82
2023/04/23 10:35:26;;;;;;;5.65;4.28;;;;;;;;;;4991259;28;20065;-81
2023/04/23 10:37:53;;;;;;;6.68;3.90;;;;;;;;;;4992706;28;20030;-80
2023/04/23 10:40:27;;;;;;;6.72;5.00;;;;;;;;;;4991787;28;20033;-81
2023/04/23 10:42:54;;;;;;;7.68;4.57;;;;;;;;;;4991976;28;20060;-81
2023/04/23 10:45:20;;;;;;;8.23;6.07;;;;;;;;;;4991401;28;20420;-79
2023/04/23 10:47:46;;;;;;;6.60;5.05;;;;;;;;;;4992286;28;20540;-82
2023/04/23 10:50:33;;;;;;;5.47;4.68;;;;;;;;;;4992202;28;20113;-82
2023/04/23 10:53:01;;;;;;;10.02;5.72;;;;;;;;;;4992257;28;20531;-81
2023/04/23 10:55:28;;;;;;;8.48;4.60;;;;;;;;;;4992652;28;20038;-80
2023/04/23 10:57:58;;;;;;;5.30;4.10;;;;;;;;;;4992310;28;20086;-81
2023/04/23 11:00:28;;;;;;;4.40;3.60;;;;;;;;;;4990878;28;20041;-81
2023/04/23 11:02:56;;;;;;;6.72;3.70;;;;;;;;;;4992212;28;20133;-80
2023/04/23 11:05:24;;;;;;;8.57;5.63;;;;;;;;;;4991919;28;20035;-81
2023/04/23 11:08:12;;;;;;;5.60;4.43;;;;;;;;;;4991011;28;20487;-81
2023/04/23 11:10:57;;;;;;;11.15;6.40;;;;;;;;;;4991591;28;20073;-82
2023/04/23 11:13:27;;;;;;;6.97;5.03;;;;;;;;;;4990802;28;20038;-82
2023/04/23 11:16:13;;;;;;;5.72;4.40;;;;;;;;;;4992008;28;20030;-81
2023/04/23 11:19:05;;;;;;;9.15;6.80;;;;;;;;;;4991658;28;20042;-79
2023/04/23 11:22:00;;;;;;;5.60;4.32;;;;;;;;;;4992479;28;20437;-82
2023/04/23 11:24:32;;;;;;;12.18;9.10;;;;;;;;;;4993483;28;20086;-82
2023/04/23 11:26:58;;;;;;;10.75;7.78;;;;;;;;;;4995146;28;20081;-81
2023/04/23 11:29:28;;;;;;;18.35;12.02;;;;;;;;;;4993402;28;20034;-81
2023/04/23 11:31:55;;;;;;;11.10;6.60;;;;;;;;;;4988151;28;20034;-82
2023/04/23 11:34:21;;;;;;;7.85;5.38;;;;;;;;;;4996636;28;20026;-81
2023/04/23 11:36:50;;;;;;;11.32;6.30;;;;;;;;;;4996555;28;20030;-81
2023/04/23 11:39:17;;;;;;;8.82;6.07;;;;;;;;;;4994195;28;20030;-82
2023/04/23 11:41:45;;;;;;;6.00;4.82;;;;;;;;;;4997374;28;20034;-82
2023/04/23 11:44:13;;;;;;;6.97;4.28;;;;;;;;;;5010335;28;20044;-82
2023/04/23 11:46:40;;;;;;;5.85;3.97;;;;;;;;;;4995060;28;20041;-79
2023/04/23 11:49:08;;;;;;;8.00;3.97;;;;;;;;;;4993703;28;20022;-83
2023/04/23 11:51:35;;;;;;;4.57;4.10;;;;;;;;;;4995242;28;20042;-80
2023/04/23 11:54:04;;;;;;;5.10;3.53;;;;;;;;;;4995108;28;20128;-82
2023/04/23 11:56:31;;;;;;;6.13;4.03;;;;;;;;;;4994576;28;20088;-81
2023/04/23 11:59:03;;;;;;;6.95;3.97;;;;;;;;;;4993374;28;20046;-82
2023/04/23 12:01:57;;;;;;;5.05;4.10;;;;;;;;;;4997179;28;20041;-81
2023/04/23 12:04:24;;;;;;;;;;;;;;;;;;4984287;28;20483;-81
2023/04/23 12:06:51;;;;;;;4.53;3.90;;;;;;;;;;4994589;28;19957;-81
2023/04/23 12:09:19;;;;;;;5.45;3.92;;;;;;;;;;4994840;28;20133;-81
2023/04/23 12:11:49;;;;;;;5.65;3.90;;;;;;;;;;4996048;28;20035;-82
2023/04/23 12:14:16;;;;;;;5.43;3.72;;;;;;;;;;4977824;28;20092;-80
2023/04/23 12:16:45;;;;;;;7.50;5.70;;;;;;;;;;4994941;28;20026;-81
2023/04/23 12:19:20;;;;;;;4.40;3.55;;;;;;;;;;4995266;28;20373;-81
2023/04/23 12:21:48;;;;;;;20.23;14.57;;;;;;;;;;4994578;28;20058;-81
2023/04/23 12:24:14;;;;;;;4.10;3.70;;;;;;;;;;5009446;28;20212;-82
2023/04/23 12:26:41;;;;;;;5.13;3.60;;;;;;;;;;4994330;28;20058;-81
2023/04/23 12:29:07;;;;;;;5.40;4.20;;;;;;;;;;4994285;28;20493;-81
2023/04/23 12:31:32;;;;;;;4.22;3.55;;;;;;;;;;4994309;28;20053;-82
2023/04/23 12:34:01;;;;;;;5.78;3.95;;;;;;;;;;4994791;28;20033;-80
2023/04/23 12:36:31;;;;;;;5.03;3.92;;;;;;;;;;4994116;28;20484;-80
2023/04/23 12:39:25;;;;;;;5.05;3.70;;;;;;;;;;4992620;28;20018;-79
2023/04/23 12:42:04;;;;;;;4.80;3.90;;;;;;;;;;4994107;28;20069;-80
2023/04/23 12:44:34;;;;;;;6.47;4.53;;;;;;;;;;4993836;28;20034;-81
2023/04/23 12:47:09;;;;;;;5.90;4.13;;;;;;;;;;4992209;28;20484;-81
2023/04/23 12:49:37;;;;;;;13.65;8.07;;;;;;;;;;4993803;28;20481;-81
2023/04/23 12:52:06;;;;;;;4.28;3.42;;;;;;;;;;4976476;28;20300;-81
2023/04/23 12:54:37;;;;;;;4.90;3.65;;;;;;;;;;4994141;28;20034;-82
2023/04/23 12:57:10;;;;;;;4.20;3.75;;;;;;;;;;4992570;28;20042;-82
2023/04/23 12:59:37;;;;;;;5.72;3.65;;;;;;;;;;4993671;28;20034;-80
2023/04/23 13:02:05;;;;;;;6.60;3.70;;;;;;;;;;4993388;28;20030;-82
2023/04/23 13:04:33;;;;;;;7.07;4.18;;;;;;;;;;4993661;28;20030;-80
2023/04/23 13:06:59;;;;;;;5.35;3.80;;;;;;;;;;5008600;28;20030;-81
2023/04/23 13:09:26;;;;;;;9.38;6.82;;;;;;;;;;4992214;28;20373;-82
2023/04/23 13:11:52;;;;;;;4.85;3.90;;;;;;;;;;5008513;28;20057;-81
2023/04/23 13:14:23;;;;;;;5.75;3.83;;;;;;;;;;4993646;28;20049;-78
2023/04/23 13:16:49;;;;;;;4.43;4.00;;;;;;;;;;4993099;28;20054;-79
2023/04/23 13:19:18;;;;;;;5.05;3.65;;;;;;;;;;4991901;28;20404;-81
2023/04/23 13:21:44;;;;;;;4.75;3.65;;;;;;;;;;4993463;28;20069;-79
2023/04/23 13:24:11;;;;;;;12.43;9.07;;;;;;;;;;4993806;28;20033;-84
2023/04/23 13:26:37;;;;;;;21.42;14.68;;;;;;;;;;4991891;28;20034;-81
2023/04/23 13:29:03;;;;;;;10.88;7.93;;;;;;;;;;4993042;28;20026;-81
2023/04/23 13:31:30;;;;;;;5.30;3.70;;;;;;;;;;4993175;28;20038;-82
2023/04/23 13:33:58;;;;;;;4.82;3.72;;;;;;;;;;4992116;28;20034;-82
2023/04/23 13:36:24;;;;;;;4.07;3.38;;;;;;;;;;4993341;28;20062;-83
2023/04/23 13:38:53;;;;;;;3.80;3.28;;;;;;;;;;4992429;28;20049;-80
2023/04/23 13:41:19;;;;;;;4.60;3.70;;;;;;;;;;4991773;28;20042;-81
2023/04/23 13:43:45;;;;;;;4.32;3.38;;;;;;;;;;4992984;28;20480;-84
2023/04/23 13:46:12;;;;;;;5.00;3.67;;;;;;;;;;4992918;28;20034;-83
2023/04/23 13:48:37;;;;;;;6.47;4.72;;;;;;;;;;4993022;28;20130;-81
2023/04/23 13:51:03;;;;;;;7.90;4.00;;;;;;;;;;4992748;28;20074;-82
2023/04/23 13:53:30;;;;;;;6.60;4.40;;;;;;;;;;4992705;28;20061;-80
2023/04/23 13:55:58;;;;;;;6.55;4.65;;;;;;;;;;4991131;28;20089;-82
2023/04/23 13:58:24;;;;;;;7.43;5.97;;;;;;;;;;4991210;28;20041;-79
2023/04/23 14:00:51;;;;;;;4.75;3.70;;;;;;;;;;4992542;28;20038;-79
2023/04/23 14:03:19;;;;;;;6.63;4.85;;;;;;;;;;4991724;28;20500;-84
2023/04/23 14:05:45;;;;;;;4.60;4.05;;;;;;;;;;4991803;28;20042;-85
2023/04/23 14:08:11;;;;;;;4.90;3.88;;;;;;;;;;4994121;28;20033;-85
2023/04/23 14:10:38;;;;;;;4.60;3.85;;;;;;;;;;4991907;28;20205;-83
2023/04/23 14:13:05;;;;;;;5.90;4.25;;;;;;;;;;4992090;28;20058;-85
2023/04/23 14:15:31;;;;;;;5.45;3.65;;;;;;;;;;4995125;28;20042;-83
2023/04/23 14:17:56;;;;;;;4.57;3.83;;;;;;;;;;4994799;28;20026;-84
2023/04/23 14:20:23;;;;;;;6.05;5.05;;;;;;;;;;4993966;28;20073;-84
2023/04/23 14:22:56;;;;;;;5.40;4.43;;;;;;;;;;4993086;28;20100;-84
2023/04/23 14:25:34;;;;;;;5.03;4.32;;;;;;;;;;4994784;28;20077;-87
2023/04/23 14:28:15;;;;;;;4.75;3.70;;;;;;;;;;4997795;28;20068;-85
2023/04/23 14:30:42;;;;;;;6.00;4.45;;;;;;;;;;4998297;28;20038;-87
2023/04/23 14:33:08;;;;;;;5.53;4.40;;;;;;;;;;4980330;28;20022;-87
2023/04/23 14:35:35;;;;;;;10.85;4.63;;;;;;;;;;4997741;28;20090;-86
2023/04/23 14:38:00;;;;;;;5.32;4.40;;;;;;;;;;5000451;28;20109;-85
2023/04/23 14:40:26;;;;;;;6.28;4.60;;;;;;;;;;5001260;28;20060;-85
2023/04/23 14:42:52;;;;;;;4.82;4.13;;;;;;;;;;4997355;28;20094;-87
2023/04/23 14:45:19;;;;;;;5.10;4.03;;;;;;;;;;4995768;28;20038;-84
2023/04/23 14:47:46;;;;;;;4.82;4.03;;;;;;;;;;4993631;28;20060;-84
2023/04/23 14:50:15;;;;;;;5.97;3.85;;;;;;;;;;4997261;28;20081;-85